createdAt,value
2019-05-18T00:00:36.561Z,11.19
2019-05-18T00:01:36.528Z,11.21
2019-05-18T00:02:36.505Z,11.16
2019-05-18T00:03:36.535Z,11.24
2019-05-18T00:04:36.533Z,11.11
2019-05-18T00:05:36.483Z,11.19
2019-05-18T00:06:36.458Z,11.17
2019-05-18T00:07:36.479Z,11.20
2019-05-18T00:08:36.482Z,11.11
2019-05-18T00:09:36.430Z,11.05
2019-05-18T00:10:36.436Z,11.02
2019-05-18T00:11:36.415Z,10.91
2019-05-18T00:12:36.408Z,10.94
2019-05-18T00:13:36.420Z,10.83
2019-05-18T00:14:36.406Z,10.88
2019-05-18T00:15:36.380Z,10.81
2019-05-18T00:16:36.360Z,10.83
2019-05-18T00:17:36.363Z,10.81
2019-05-18T00:18:36.518Z,10.87
2019-05-18T00:19:36.323Z,10.78
2019-05-18T00:20:36.323Z,10.75
2019-05-18T00:21:36.330Z,10.70
2019-05-18T00:22:36.307Z,10.62
2019-05-18T00:23:36.324Z,10.60
2019-05-18T00:24:36.275Z,10.54
2019-05-18T00:25:36.276Z,10.39
2019-05-18T00:26:36.281Z,10.35
2019-05-18T00:27:36.247Z,10.43
2019-05-18T00:28:36.279Z,10.36
2019-05-18T00:29:36.234Z,10.42
2019-05-18T00:30:36.218Z,10.42
2019-05-18T00:31:36.232Z,10.29
2019-05-18T00:32:36.202Z,10.43
2019-05-18T00:33:36.197Z,10.38
2019-05-18T00:34:36.164Z,10.31
2019-05-18T00:35:36.170Z,10.35
2019-05-18T00:36:36.237Z,10.32
2019-05-18T00:37:36.164Z,10.29
2019-05-18T00:38:36.156Z,10.29
2019-05-18T00:39:36.106Z,10.28
2019-05-18T00:40:36.108Z,10.34
2019-05-18T00:41:36.198Z,10.34
2019-05-18T00:42:36.087Z,10.39
2019-05-18T00:43:36.096Z,10.26
2019-05-18T00:44:36.071Z,10.26
2019-05-18T00:45:36.047Z,10.29
2019-05-18T00:46:36.045Z,10.11
2019-05-18T00:47:41.360Z,10.01
2019-05-18T00:48:36.020Z,10.06
2019-05-18T00:49:36.021Z,9.99
2019-05-18T00:50:36.012Z,9.96
2019-05-18T00:51:35.974Z,10.02
2019-05-18T00:52:35.971Z,9.88
2019-05-18T00:53:36.010Z,9.95
2019-05-18T00:54:35.975Z,10.04
2019-05-18T00:55:35.941Z,10.04
2019-05-18T00:56:35.934Z,9.95
2019-05-18T00:57:35.926Z,10.01
2019-05-18T00:58:35.936Z,9.99
2019-05-18T00:59:35.915Z,9.96
2019-05-18T01:00:35.917Z,9.89
2019-05-18T01:01:35.889Z,9.95
2019-05-18T01:02:35.865Z,9.98
2019-05-18T01:03:35.851Z,9.92
2019-05-18T01:04:35.867Z,9.81
2019-05-18T01:05:38.010Z,9.83
2019-05-18T01:06:35.830Z,9.73
2019-05-18T01:07:35.810Z,9.68
2019-05-18T01:08:35.834Z,9.68
2019-05-18T01:09:35.838Z,9.70
2019-05-18T01:10:35.798Z,9.58
2019-05-18T01:11:35.803Z,9.55
2019-05-18T01:12:35.763Z,9.48
2019-05-18T01:13:35.771Z,9.42
2019-05-18T01:14:35.774Z,9.34
2019-05-18T01:15:35.741Z,9.56
2019-05-18T01:16:35.723Z,9.45
2019-05-18T01:17:35.703Z,9.55
2019-05-18T01:18:35.694Z,9.53
2019-05-18T01:19:35.749Z,9.52
2019-05-18T01:20:35.665Z,9.50
2019-05-18T01:21:35.664Z,9.52
2019-05-18T01:22:35.636Z,9.42
2019-05-18T01:23:35.627Z,9.41
2019-05-18T01:24:35.645Z,9.44
2019-05-18T01:25:35.638Z,9.42
2019-05-18T01:26:35.609Z,9.44
2019-05-18T01:27:35.599Z,9.34
2019-05-18T01:28:35.594Z,9.26
2019-05-18T01:29:35.606Z,9.34
2019-05-18T01:30:35.567Z,9.35
2019-05-18T01:31:35.568Z,9.26
2019-05-18T01:32:35.542Z,9.26
2019-05-18T01:33:35.533Z,9.23
2019-05-18T01:34:35.559Z,9.32
2019-05-18T01:35:35.522Z,9.44
2019-05-18T01:36:35.499Z,9.63
2019-05-18T01:56:20.432Z,9.86
2019-05-18T01:57:21.380Z,9.75
2019-05-18T01:58:21.370Z,9.75
2019-05-18T01:59:21.347Z,9.77
2019-05-18T02:00:21.413Z,9.77
2019-05-18T02:01:21.343Z,9.77
2019-05-18T02:02:21.339Z,9.77
2019-05-18T02:03:21.345Z,9.91
2019-05-18T02:04:21.324Z,9.86
2019-05-18T02:05:21.313Z,9.78
2019-05-18T02:06:21.321Z,9.80
2019-05-18T02:07:21.276Z,9.93
2019-05-18T02:08:21.259Z,9.88
2019-05-18T02:09:21.284Z,9.92
2019-05-18T02:10:21.277Z,9.98
2019-05-18T02:11:21.225Z,9.86
2019-05-18T02:12:21.217Z,9.63
2019-05-18T02:13:21.209Z,9.70
2019-05-18T02:14:21.190Z,9.59
2019-05-18T02:15:21.200Z,9.56
2019-05-18T02:16:21.186Z,9.41
2019-05-18T02:17:21.177Z,9.38
2019-05-18T02:18:28.664Z,9.34
2019-05-18T02:19:21.154Z,9.32
2019-05-18T02:20:21.148Z,9.50
2019-05-18T02:21:21.229Z,9.45
2019-05-18T02:22:21.097Z,9.55
2019-05-18T02:23:21.100Z,9.50
2019-05-18T02:24:21.079Z,9.59
2019-05-18T02:25:21.082Z,9.53
2019-05-18T02:26:21.063Z,9.56
2019-05-18T02:27:21.053Z,9.50
2019-05-18T02:28:21.038Z,9.52
2019-05-18T02:29:21.028Z,9.49
2019-05-18T02:30:21.045Z,9.52
2019-05-18T02:31:21.018Z,9.50
2019-05-18T02:32:21.000Z,9.52
2019-05-18T02:33:21.564Z,9.48
2019-05-18T02:34:20.990Z,9.40
2019-05-18T02:35:21.009Z,9.32
2019-05-18T02:36:20.992Z,9.38
2019-05-18T02:37:20.953Z,9.27
2019-05-18T02:38:20.963Z,9.31
2019-05-18T02:39:20.947Z,9.19
2019-05-18T02:40:20.919Z,9.26
2019-05-18T02:41:20.962Z,9.38
2019-05-18T02:42:20.961Z,9.37
2019-05-18T02:43:20.900Z,9.31
2019-05-18T02:44:20.883Z,9.34
2019-05-18T02:45:20.882Z,9.32
2019-05-18T02:46:20.893Z,9.32
2019-05-18T02:47:20.838Z,9.19
2019-05-18T02:48:20.828Z,9.24
2019-05-18T02:49:20.815Z,9.24
2019-05-18T02:50:20.806Z,9.23
2019-05-18T02:51:20.820Z,9.31
2019-05-18T02:52:20.810Z,9.42
2019-05-18T02:53:20.811Z,9.40
2019-05-18T02:54:20.784Z,9.41
2019-05-18T02:55:20.781Z,9.44
2019-05-18T02:56:21.104Z,9.48
2019-05-18T02:57:20.728Z,9.44
2019-05-18T02:58:20.727Z,9.42
2019-05-18T02:59:20.703Z,9.27
2019-05-18T03:00:20.717Z,9.26
2019-05-18T03:01:20.734Z,9.20
2019-05-18T03:02:20.684Z,9.17
2019-05-18T03:03:20.736Z,9.22
2019-05-18T03:04:20.720Z,9.37
2019-05-18T03:05:20.664Z,9.23
2019-05-18T03:06:20.635Z,9.26
2019-05-18T03:07:20.617Z,9.20
2019-05-18T03:08:20.609Z,9.30
2019-05-18T03:09:20.596Z,9.30
2019-05-18T03:10:20.596Z,9.24
2019-05-18T03:11:20.582Z,9.27
2019-05-18T03:12:20.584Z,9.22
2019-05-18T03:13:20.571Z,9.17
2019-05-18T03:14:20.582Z,9.24
2019-05-18T03:15:20.552Z,9.19
2019-05-18T03:16:20.649Z,9.20
2019-05-18T03:17:20.512Z,9.22
2019-05-18T03:18:20.519Z,9.22
2019-05-18T03:19:20.497Z,9.19
2019-05-18T03:20:20.504Z,9.19
2019-05-18T03:21:20.482Z,9.17
2019-05-18T03:22:20.471Z,9.31
2019-05-18T03:23:20.452Z,9.31
2019-05-18T03:24:20.455Z,9.23
2019-05-18T03:25:20.464Z,9.22
2019-05-18T03:26:20.414Z,9.24
2019-05-18T03:27:20.445Z,9.22
2019-05-18T03:28:20.434Z,9.22
2019-05-18T03:29:20.379Z,9.15
2019-05-18T03:30:20.406Z,9.10
2019-05-18T03:31:20.375Z,9.13
2019-05-18T03:32:20.389Z,9.16
2019-05-18T03:33:20.394Z,9.13
2019-05-18T03:34:20.341Z,9.23
2019-05-18T03:35:20.437Z,9.26
2019-05-18T03:36:20.333Z,9.19
2019-05-18T03:37:20.306Z,9.19
2019-05-18T03:38:20.283Z,9.32
2019-05-18T03:39:20.282Z,9.34
2019-05-18T03:40:20.254Z,9.45
2019-05-18T03:41:20.254Z,9.42
2019-05-18T03:42:20.253Z,9.55
2019-05-18T03:43:20.236Z,9.55
2019-05-18T03:44:20.229Z,9.50
2019-05-18T03:45:20.201Z,9.53
2019-05-18T03:46:23.788Z,9.65
2019-05-18T03:47:20.208Z,9.63
2019-05-18T03:48:20.170Z,9.67
2019-05-18T03:49:26.809Z,9.63
2019-05-18T03:50:20.164Z,9.70
2019-05-18T03:51:20.141Z,9.65
2019-05-18T03:52:20.138Z,9.60
2019-05-18T03:53:20.103Z,9.75
2019-05-18T03:54:20.133Z,9.67
2019-05-18T03:55:20.112Z,9.63
2019-05-18T03:57:29.377Z,9.63
2019-05-18T03:58:30.297Z,9.65
2019-05-18T03:59:30.277Z,9.68
2019-05-18T04:00:30.231Z,9.73
2019-05-18T04:01:30.243Z,9.75
2019-05-18T04:02:30.247Z,9.63
2019-05-18T04:03:30.231Z,9.77
2019-05-18T04:04:30.213Z,9.85
2019-05-18T04:05:30.225Z,9.67
2019-05-18T04:06:30.189Z,9.68
2019-05-18T04:07:30.197Z,9.68
2019-05-18T04:08:30.156Z,9.67
2019-05-18T04:09:30.143Z,9.70
2019-05-18T04:10:30.135Z,9.88
2019-05-18T04:11:30.118Z,9.81
2019-05-18T04:12:30.130Z,9.81
2019-05-18T04:13:30.159Z,9.78
2019-05-18T04:14:30.108Z,9.67
2019-05-18T04:15:30.119Z,9.78
2019-05-18T04:16:30.107Z,9.70
2019-05-18T04:17:30.069Z,9.77
2019-05-18T04:18:30.048Z,9.73
2019-05-18T04:19:44.694Z,9.65
2019-05-18T04:20:30.525Z,9.62
2019-05-18T04:21:30.018Z,9.63
2019-05-18T04:22:30.015Z,9.62
2019-05-18T04:23:30.008Z,9.65
2019-05-18T04:24:29.987Z,9.68
2019-05-18T04:25:30.029Z,9.63
2019-05-18T04:26:29.963Z,9.67
2019-05-18T04:27:29.956Z,9.65
2019-05-18T04:28:29.986Z,9.67
2019-05-18T04:29:29.923Z,9.75
2019-05-18T04:30:29.919Z,9.67
2019-05-18T04:31:32.407Z,9.70
2019-05-18T04:32:29.916Z,9.68
2019-05-18T04:33:29.915Z,9.75
2019-05-18T04:34:29.890Z,9.86
2019-05-18T04:35:29.889Z,9.74
2019-05-18T04:36:29.845Z,9.75
2019-05-18T04:37:29.841Z,9.78
2019-05-18T04:38:29.850Z,9.81
2019-05-18T04:39:29.804Z,9.80
2019-05-18T04:40:29.812Z,9.75
2019-05-18T04:41:29.792Z,9.93
2019-05-18T04:42:29.797Z,9.96
2019-05-18T04:43:29.795Z,9.89
2019-05-18T04:44:29.765Z,10.06
2019-05-18T04:45:29.762Z,10.07
2019-05-18T04:46:29.814Z,9.95
2019-05-18T04:47:29.735Z,9.96
2019-05-18T04:48:29.755Z,10.06
2019-05-18T04:49:29.707Z,10.11
2019-05-18T04:50:29.715Z,10.11
2019-05-18T04:51:29.688Z,10.22
2019-05-18T04:52:29.674Z,10.22
2019-05-18T04:53:29.704Z,10.35
2019-05-18T04:54:29.665Z,10.38
2019-05-18T04:55:29.656Z,10.55
2019-05-18T04:56:29.632Z,10.57
2019-05-18T04:57:29.675Z,10.65
2019-05-18T04:58:29.639Z,10.83
2019-05-18T04:59:29.621Z,10.86
2019-05-18T05:00:29.582Z,11.01
2019-05-18T05:01:29.585Z,10.99
2019-05-18T05:02:29.565Z,11.11
2019-05-18T05:03:29.575Z,11.19
2019-05-18T05:04:29.543Z,11.21
2019-05-18T05:05:29.536Z,11.42
2019-05-18T05:06:29.532Z,11.51
2019-05-18T05:07:29.536Z,11.51
2019-05-18T05:08:29.519Z,11.72
2019-05-18T05:09:29.491Z,11.72
2019-05-18T05:10:29.485Z,11.84
2019-05-18T05:11:29.464Z,11.98
2019-05-18T05:12:29.456Z,12.18
2019-05-18T05:13:29.483Z,12.33
2019-05-18T05:14:29.437Z,12.40
2019-05-18T05:15:29.440Z,12.59
2019-05-18T05:16:29.424Z,12.59
2019-05-18T05:17:29.407Z,12.70
2019-05-18T05:18:29.438Z,12.81
2019-05-18T05:19:29.378Z,13.03
2019-05-18T05:20:29.387Z,13.09
2019-05-18T05:21:29.347Z,13.16
2019-05-18T05:22:29.364Z,13.27
2019-05-18T05:23:29.400Z,13.29
2019-05-18T05:24:29.330Z,13.44
2019-05-18T05:25:29.310Z,13.51
2019-05-18T05:26:29.313Z,13.62
2019-05-18T05:27:29.297Z,13.75
2019-05-18T05:28:29.326Z,13.84
2019-05-18T05:29:29.273Z,13.88
2019-05-18T05:30:29.261Z,13.91
2019-05-18T05:31:29.242Z,14.01
2019-05-18T05:32:29.244Z,13.98
2019-05-18T05:33:29.241Z,14.01
2019-05-18T05:34:29.219Z,14.01
2019-05-18T05:35:29.212Z,14.08
2019-05-18T05:36:29.201Z,14.09
2019-05-18T05:37:29.202Z,14.12
2019-05-18T05:38:29.211Z,14.19
2019-05-18T05:39:29.164Z,14.24
2019-05-18T05:40:29.204Z,14.20
2019-05-18T05:41:29.159Z,14.11
2019-05-18T05:42:29.123Z,14.29
2019-05-18T05:43:29.144Z,14.46
2019-05-18T05:44:29.135Z,14.56
2019-05-18T05:45:29.089Z,14.61
2019-05-18T05:46:29.103Z,14.67
2019-05-18T05:47:29.127Z,14.74
2019-05-18T05:48:29.119Z,14.86
2019-05-18T05:49:29.217Z,14.87
2019-05-18T05:50:35.878Z,14.97
2019-05-18T05:51:29.029Z,15.09
2019-05-18T05:52:29.017Z,15.04
2019-05-18T05:53:29.049Z,15.15
2019-05-18T05:54:29.022Z,15.09
2019-05-18T05:55:28.998Z,15.00
2019-05-18T05:56:28.980Z,14.83
2019-05-18T06:04:42.953Z,14.78
2019-05-18T06:05:43.953Z,14.82
2019-05-18T06:06:43.907Z,14.90
2019-05-18T06:07:43.902Z,14.93
2019-05-18T06:08:43.944Z,15.15
2019-05-18T06:09:43.895Z,15.31
2019-05-18T06:10:43.875Z,15.35
2019-05-18T06:11:43.903Z,15.40
2019-05-18T06:12:43.867Z,15.48
2019-05-18T06:13:43.834Z,15.64
2019-05-18T06:14:43.862Z,15.55
2019-05-18T06:15:43.826Z,15.52
2019-05-18T06:16:43.807Z,15.62
2019-05-18T06:17:43.843Z,15.68
2019-05-18T06:18:43.815Z,15.60
2019-05-18T06:19:43.800Z,15.60
2019-05-18T06:20:51.553Z,15.71
2019-05-18T06:21:43.740Z,15.81
2019-05-18T06:22:43.761Z,15.78
2019-05-18T06:23:43.754Z,15.84
2019-05-18T06:24:43.748Z,15.74
2019-05-18T06:25:43.691Z,15.68
2019-05-18T06:26:43.713Z,15.77
2019-05-18T06:27:43.681Z,15.89
2019-05-18T06:28:43.667Z,16.04
2019-05-18T06:29:43.691Z,16.04
2019-05-18T06:30:43.641Z,16.13
2019-05-18T06:31:43.633Z,16.36
2019-05-18T06:32:43.625Z,16.44
2019-05-18T06:33:43.616Z,16.45
2019-05-18T06:34:43.633Z,16.44
2019-05-18T06:35:43.597Z,16.47
2019-05-18T06:36:43.594Z,16.47
2019-05-18T06:37:43.569Z,16.41
2019-05-18T06:38:43.568Z,16.67
2019-05-18T06:39:43.565Z,16.81
2019-05-18T06:40:43.536Z,16.85
2019-05-18T06:41:43.562Z,16.88
2019-05-18T06:42:43.511Z,16.87
2019-05-18T06:43:43.529Z,16.84
2019-05-18T06:44:43.498Z,16.88
2019-05-18T06:45:43.486Z,16.77
2019-05-18T06:46:43.505Z,16.82
2019-05-18T06:47:43.467Z,16.80
2019-05-18T06:48:43.504Z,16.91
2019-05-18T06:49:43.480Z,17.00
2019-05-18T06:50:43.480Z,17.02
2019-05-18T06:51:43.419Z,17.22
2019-05-18T06:52:43.411Z,17.39
2019-05-18T06:53:43.431Z,17.62
2019-05-18T06:54:43.415Z,17.58
2019-05-18T06:55:43.400Z,17.77
2019-05-18T06:56:43.372Z,17.70
2019-05-18T06:57:43.364Z,17.58
2019-05-18T06:58:43.359Z,17.65
2019-05-18T06:59:43.371Z,17.73
2019-05-18T07:00:43.334Z,17.70
2019-05-18T07:01:43.354Z,17.73
2019-05-18T07:02:43.356Z,17.83
2019-05-18T07:03:45.126Z,17.77
2019-05-18T07:04:44.668Z,17.89
2019-05-18T07:05:43.278Z,18.13
2019-05-18T07:06:43.278Z,17.95
2019-05-18T07:07:43.255Z,17.98
2019-05-18T07:08:43.256Z,18.16
2019-05-18T07:09:43.242Z,18.05
2019-05-18T07:10:43.226Z,18.07
2019-05-18T07:11:43.245Z,18.05
2019-05-18T07:12:43.192Z,18.10
2019-05-18T07:13:43.183Z,18.19
2019-05-18T07:14:43.182Z,18.17
2019-05-18T07:15:43.192Z,18.20
2019-05-18T07:16:43.141Z,18.19
2019-05-18T07:17:43.139Z,18.10
2019-05-18T07:18:43.138Z,17.87
2019-05-18T07:19:43.161Z,17.77
2019-05-18T07:20:43.117Z,17.77
2019-05-18T07:21:43.093Z,17.92
2019-05-18T07:22:43.098Z,18.07
2019-05-18T07:23:43.968Z,18.02
2019-05-18T07:24:43.137Z,18.20
2019-05-18T07:25:43.056Z,18.41
2019-05-18T07:26:43.047Z,18.64
2019-05-18T07:27:43.051Z,18.64
2019-05-18T07:28:43.047Z,18.31
2019-05-18T07:29:43.029Z,18.09
2019-05-18T07:30:43.034Z,18.07
2019-05-18T07:31:43.011Z,18.38
2019-05-18T07:32:42.980Z,18.53
2019-05-18T07:33:42.979Z,18.82
2019-05-18T07:34:42.977Z,18.94
2019-05-18T07:35:43.123Z,19.02
2019-05-18T07:36:42.944Z,19.09
2019-05-18T07:37:42.937Z,19.17
2019-05-18T07:38:42.911Z,19.23
2019-05-18T07:39:42.901Z,19.30
2019-05-18T07:40:42.909Z,19.20
2019-05-18T07:41:46.951Z,18.91
2019-05-18T07:42:42.892Z,18.71
2019-05-18T07:43:42.863Z,18.60
2019-05-18T07:44:42.856Z,18.57
2019-05-18T07:45:42.857Z,18.69
2019-05-18T07:46:42.818Z,18.91
2019-05-18T07:47:42.814Z,19.02
2019-05-18T07:48:42.813Z,19.15
2019-05-18T07:49:42.793Z,19.06
2019-05-18T07:50:42.814Z,18.74
2019-05-18T07:51:42.797Z,18.84
2019-05-18T07:52:42.808Z,19.10
2019-05-18T07:53:42.744Z,19.28
2019-05-18T07:54:42.721Z,19.40
2019-05-18T07:55:42.784Z,19.45
2019-05-18T07:56:42.718Z,19.70
2019-05-18T07:57:42.712Z,19.75
2019-05-18T07:58:42.702Z,19.82
2019-05-18T07:59:42.696Z,19.76
2019-05-18T08:00:42.756Z,19.76
2019-05-18T08:01:42.664Z,19.82
2019-05-18T08:02:42.697Z,19.95
2019-05-18T08:03:42.669Z,19.94
2019-05-18T08:10:43.464Z,20.83
2019-05-18T08:11:41.591Z,21.05
2019-05-18T08:12:41.561Z,21.08
2019-05-18T08:13:41.624Z,21.26
2019-05-18T08:14:41.563Z,21.36
2019-05-18T08:15:41.550Z,21.48
2019-05-18T08:16:41.520Z,21.26
2019-05-18T08:17:41.531Z,21.21
2019-05-18T08:18:41.513Z,21.12
2019-05-18T08:19:41.507Z,21.24
2019-05-18T08:20:41.514Z,21.24
2019-05-18T08:21:52.728Z,21.34
2019-05-18T08:22:41.469Z,20.96
2019-05-18T08:23:41.469Z,20.98
2019-05-18T08:24:41.625Z,21.19
2019-05-18T08:25:41.431Z,21.45
2019-05-18T08:26:41.411Z,21.64
2019-05-18T08:27:41.385Z,21.49
2019-05-18T08:28:41.434Z,21.37
2019-05-18T08:29:41.443Z,21.19
2019-05-18T08:30:41.400Z,21.16
2019-05-18T08:31:41.371Z,21.31
2019-05-18T08:32:41.354Z,21.52
2019-05-18T08:33:41.321Z,21.21
2019-05-18T08:34:41.326Z,21.19
2019-05-18T08:35:41.316Z,21.18
2019-05-18T08:36:41.295Z,21.01
2019-05-18T08:37:41.289Z,20.96
2019-05-18T08:38:41.274Z,21.16
2019-05-18T08:39:41.298Z,21.00
2019-05-18T08:40:41.259Z,21.16
2019-05-18T08:41:41.241Z,21.33
2019-05-18T08:42:41.219Z,21.21
2019-05-18T08:43:41.214Z,21.12
2019-05-18T08:44:41.210Z,21.13
2019-05-18T08:45:41.205Z,21.38
2019-05-18T08:46:41.199Z,21.55
2019-05-18T08:47:41.210Z,21.73
2019-05-18T08:48:41.188Z,21.81
2019-05-18T08:49:41.160Z,21.68
2019-05-18T08:50:41.162Z,21.66
2019-05-18T08:51:41.133Z,21.86
2019-05-18T08:52:41.120Z,22.04
2019-05-18T08:53:41.125Z,22.14
2019-05-18T08:54:41.102Z,22.42
2019-05-18T08:55:41.131Z,22.15
2019-05-18T08:56:41.070Z,22.01
2019-05-18T08:57:41.062Z,22.02
2019-05-18T08:58:41.049Z,22.23
2019-05-18T08:59:41.064Z,22.33
2019-05-18T09:00:41.065Z,22.41
2019-05-18T09:01:41.040Z,22.45
2019-05-18T09:02:41.023Z,22.41
2019-05-18T09:03:41.008Z,22.02
2019-05-18T09:04:40.998Z,22.06
2019-05-18T09:05:40.985Z,21.75
2019-05-18T09:06:41.006Z,21.70
2019-05-18T09:07:40.950Z,21.94
2019-05-18T09:08:40.970Z,22.17
2019-05-18T09:09:40.936Z,22.39
2019-05-18T09:10:40.921Z,22.41
2019-05-18T09:11:40.934Z,21.91
2019-05-18T09:12:40.897Z,21.81
2019-05-18T09:13:40.949Z,21.85
2019-05-18T09:14:40.900Z,22.02
2019-05-18T09:15:40.882Z,22.12
2019-05-18T09:16:40.927Z,22.26
2019-05-18T09:17:40.874Z,22.17
2019-05-18T09:18:40.874Z,22.19
2019-05-18T09:19:40.929Z,21.91
2019-05-18T09:20:40.852Z,21.74
2019-05-18T09:21:40.856Z,21.85
2019-05-18T09:22:40.797Z,22.19
2019-05-18T09:23:40.822Z,21.85
2019-05-18T09:24:40.777Z,21.86
2019-05-18T09:25:40.800Z,21.89
2019-05-18T09:26:40.795Z,21.93
2019-05-18T09:27:40.747Z,22.09
2019-05-18T09:28:40.757Z,21.99
2019-05-18T09:29:40.747Z,21.48
2019-05-18T09:30:41.346Z,21.43
2019-05-18T09:31:40.757Z,21.42
2019-05-18T09:32:40.707Z,21.15
2019-05-18T09:33:40.704Z,20.98
2019-05-18T09:34:40.699Z,21.03
2019-05-18T09:35:40.734Z,21.03
2019-05-18T09:36:40.732Z,21.28
2019-05-18T09:37:40.640Z,21.56
2019-05-18T09:38:40.638Z,21.52
2019-05-18T09:39:40.645Z,21.68
2019-05-18T09:40:40.628Z,21.94
2019-05-18T09:41:40.618Z,22.14
2019-05-18T09:42:40.590Z,22.30
2019-05-18T09:43:40.575Z,22.48
2019-05-18T09:44:40.580Z,22.66
2019-05-18T09:45:40.589Z,22.54
2019-05-18T09:46:40.565Z,22.52
2019-05-18T09:47:40.570Z,22.31
2019-05-18T09:48:40.594Z,22.24
2019-05-18T09:49:40.579Z,22.27
2019-05-18T09:50:40.543Z,22.45
2019-05-18T09:51:40.503Z,22.74
2019-05-18T09:52:45.814Z,22.97
2019-05-18T09:53:51.265Z,23.00
2019-05-18T09:54:40.462Z,22.88
2019-05-18T09:55:40.451Z,22.97
2019-05-18T09:56:40.513Z,22.99
2019-05-18T09:57:40.493Z,22.91
2019-05-18T09:58:40.450Z,23.09
2019-05-18T09:59:40.455Z,23.29
2019-05-18T10:00:40.419Z,23.47
2019-05-18T10:01:40.403Z,23.21
2019-05-18T10:02:40.379Z,23.12
2019-05-18T10:03:40.366Z,23.03
2019-05-18T10:04:40.423Z,22.99
2019-05-18T10:05:40.362Z,22.96
2019-05-18T10:06:40.389Z,22.86
2019-05-18T10:07:40.351Z,22.74
2019-05-18T10:08:40.373Z,22.63
2019-05-18T10:09:40.333Z,22.44
2019-05-18T10:14:23.462Z,22.60
2019-05-18T10:15:24.422Z,22.81
2019-05-18T10:16:24.391Z,23.12
2019-05-18T10:17:24.430Z,23.03
2019-05-18T10:18:24.393Z,23.11
2019-05-18T10:19:24.364Z,23.29
2019-05-18T10:20:24.350Z,23.11
2019-05-18T10:21:24.357Z,22.79
2019-05-18T10:22:24.358Z,22.44
2019-05-18T10:23:24.317Z,22.27
2019-05-18T10:24:24.319Z,22.24
2019-05-18T10:25:24.300Z,21.86
2019-05-18T10:26:24.285Z,21.99
2019-05-18T10:27:24.349Z,22.24
2019-05-18T10:28:24.313Z,22.42
2019-05-18T10:29:24.271Z,22.60
2019-05-18T10:30:24.256Z,22.97
2019-05-18T10:31:24.243Z,22.99
2019-05-18T10:32:24.252Z,23.26
2019-05-18T10:33:24.240Z,23.60
2019-05-18T10:34:24.206Z,23.35
2019-05-18T10:35:24.309Z,23.15
2019-05-18T10:36:24.179Z,23.03
2019-05-18T10:37:24.198Z,23.16
2019-05-18T10:38:24.177Z,23.11
2019-05-18T10:39:24.146Z,23.01
2019-05-18T10:40:24.136Z,23.09
2019-05-18T10:41:24.146Z,23.16
2019-05-18T10:42:24.165Z,23.25
2019-05-18T10:43:24.143Z,23.41
2019-05-18T10:44:24.095Z,23.15
2019-05-18T10:45:24.083Z,22.96
2019-05-18T10:46:24.075Z,22.76
2019-05-18T10:47:24.075Z,22.97
2019-05-18T10:48:24.548Z,23.45
2019-05-18T10:49:24.045Z,23.74
2019-05-18T10:50:24.026Z,24.06
2019-05-18T10:51:24.018Z,24.33
2019-05-18T10:52:24.030Z,24.60
2019-05-18T10:53:28.677Z,24.34
2019-05-18T10:54:24.005Z,24.34
2019-05-18T10:55:23.978Z,24.63
2019-05-18T10:56:23.952Z,24.84
2019-05-18T10:57:23.967Z,24.53
2019-05-18T10:58:23.928Z,24.45
2019-05-18T10:59:23.916Z,24.27
2019-05-18T11:00:23.911Z,24.23
2019-05-18T11:01:23.922Z,23.81
2019-05-18T11:02:23.905Z,23.59
2019-05-18T11:03:23.912Z,23.75
2019-05-18T11:04:23.881Z,23.97
2019-05-18T11:05:23.862Z,24.34
2019-05-18T11:06:23.872Z,24.39
2019-05-18T11:07:23.846Z,24.74
2019-05-18T11:08:23.859Z,24.99
2019-05-18T11:09:23.820Z,25.16
2019-05-18T11:10:23.822Z,25.23
2019-05-18T11:11:23.801Z,25.39
2019-05-18T11:12:23.783Z,25.34
2019-05-18T11:13:23.803Z,25.26
2019-05-18T11:14:23.787Z,24.52
2019-05-18T11:15:23.802Z,24.39
2019-05-18T11:16:23.769Z,24.77
2019-05-18T11:17:23.774Z,25.01
2019-05-18T11:18:23.755Z,25.29
2019-05-18T11:19:23.733Z,25.53
2019-05-18T11:20:23.735Z,25.59
2019-05-18T11:21:23.687Z,25.49
2019-05-18T11:22:23.744Z,25.57
2019-05-18T11:23:23.711Z,25.71
2019-05-18T11:24:23.737Z,25.98
2019-05-18T11:25:23.676Z,26.00
2019-05-18T11:26:23.640Z,26.20
2019-05-18T11:27:23.683Z,26.29
2019-05-18T11:28:23.691Z,26.04
2019-05-18T11:29:24.387Z,26.17
2019-05-18T11:30:23.676Z,26.27
2019-05-18T11:31:23.605Z,26.32
2019-05-18T11:32:23.610Z,25.83
2019-05-18T11:33:23.626Z,26.03
2019-05-18T11:34:23.584Z,26.16
2019-05-18T11:35:23.575Z,25.42
2019-05-18T11:36:23.533Z,24.94
2019-05-18T11:37:23.557Z,24.37
2019-05-18T11:38:23.541Z,24.27
2019-05-18T11:39:23.532Z,24.68
2019-05-18T11:40:23.538Z,24.99
2019-05-18T11:41:23.495Z,25.08
2019-05-18T11:42:23.501Z,25.07
2019-05-18T11:43:23.471Z,25.04
2019-05-18T11:44:23.522Z,25.27
2019-05-18T11:45:23.500Z,25.31
2019-05-18T11:46:23.411Z,25.22
2019-05-18T11:47:23.404Z,25.29
2019-05-18T11:48:23.497Z,25.20
2019-05-18T11:49:23.422Z,25.08
2019-05-18T11:50:23.440Z,25.12
2019-05-18T11:51:23.506Z,24.97
2019-05-18T11:52:23.351Z,24.77
2019-05-18T11:53:23.414Z,24.70
2019-05-18T11:54:23.336Z,24.46
2019-05-18T11:55:23.382Z,24.53
2019-05-18T11:56:23.308Z,24.00
2019-05-18T11:57:23.336Z,23.87
2019-05-18T11:58:23.356Z,24.08
2019-05-18T11:59:23.297Z,24.08
2019-05-18T12:00:23.390Z,24.06
2019-05-18T12:01:23.260Z,24.21
2019-05-18T12:02:23.281Z,24.39
2019-05-18T12:03:23.311Z,24.33
2019-05-18T12:04:23.284Z,24.53
2019-05-18T12:05:23.236Z,24.83
2019-05-18T12:06:23.246Z,24.92
2019-05-18T12:07:23.177Z,24.93
2019-05-18T12:08:23.203Z,24.87
2019-05-18T12:09:23.206Z,24.94
2019-05-18T12:10:23.160Z,25.08
2019-05-18T12:11:23.142Z,24.97
2019-05-18T12:12:23.123Z,24.37
2019-05-18T12:13:23.126Z,24.36
2019-05-18T12:15:32.332Z,24.42
2019-05-18T12:16:33.306Z,24.55
2019-05-18T12:17:33.290Z,24.39
2019-05-18T12:18:33.285Z,24.26
2019-05-18T12:19:33.281Z,24.04
2019-05-18T12:20:33.283Z,24.00
2019-05-18T12:21:33.250Z,23.87
2019-05-18T12:22:33.239Z,23.96
2019-05-18T12:23:33.238Z,23.78
2019-05-18T12:24:33.237Z,23.72
2019-05-18T12:25:33.196Z,23.67
2019-05-18T12:26:33.217Z,23.57
2019-05-18T12:27:33.216Z,23.59
2019-05-18T12:28:33.179Z,23.63
2019-05-18T12:29:33.193Z,23.69
2019-05-18T12:30:33.153Z,23.60
2019-05-18T12:31:33.147Z,23.68
2019-05-18T12:32:33.150Z,23.79
2019-05-18T12:33:33.119Z,23.99
2019-05-18T12:34:33.128Z,23.84
2019-05-18T12:35:33.153Z,23.78
2019-05-18T12:36:33.107Z,23.44
2019-05-18T12:37:33.081Z,23.32
2019-05-18T12:38:33.061Z,23.16
2019-05-18T12:39:33.090Z,23.09
2019-05-18T12:40:33.045Z,23.03
2019-05-18T12:41:33.040Z,23.15
2019-05-18T12:42:33.049Z,23.29
2019-05-18T12:43:33.024Z,23.19
2019-05-18T12:44:33.005Z,23.16
2019-05-18T12:45:32.995Z,23.21
2019-05-18T12:46:32.986Z,23.53
2019-05-18T12:47:32.966Z,23.68
2019-05-18T12:48:32.967Z,23.86
2019-05-18T12:49:32.947Z,24.26
2019-05-18T12:50:32.922Z,24.45
2019-05-18T12:51:32.914Z,24.77
2019-05-18T12:52:32.913Z,24.97
2019-05-18T12:53:32.896Z,25.16
2019-05-18T12:54:45.527Z,25.20
2019-05-18T12:55:32.889Z,25.46
2019-05-18T12:56:32.886Z,25.51
2019-05-18T12:57:32.850Z,25.24
2019-05-18T12:58:32.833Z,25.34
2019-05-18T12:59:32.866Z,25.42
2019-05-18T13:00:32.855Z,25.38
2019-05-18T13:01:32.832Z,25.07
2019-05-18T13:02:32.815Z,25.22
2019-05-18T13:03:32.783Z,25.67
2019-05-18T13:04:32.835Z,25.90
2019-05-18T13:05:32.778Z,26.01
2019-05-18T13:06:32.776Z,26.44
2019-05-18T13:07:32.749Z,26.27
2019-05-18T13:08:32.742Z,26.21
2019-05-18T13:09:32.756Z,26.39
2019-05-18T13:10:32.732Z,26.47
2019-05-18T13:11:32.708Z,26.59
2019-05-18T13:12:32.693Z,26.32
2019-05-18T13:13:32.700Z,26.00
2019-05-18T13:14:32.692Z,26.09
2019-05-18T13:15:32.688Z,26.31
2019-05-18T13:16:32.657Z,26.35
2019-05-18T13:17:32.634Z,26.21
2019-05-18T13:18:32.622Z,26.01
2019-05-18T13:19:32.625Z,26.20
2019-05-18T13:20:32.643Z,26.24
2019-05-18T13:21:32.590Z,26.31
2019-05-18T13:22:32.575Z,26.54
2019-05-18T13:23:32.575Z,26.19
2019-05-18T13:24:44.226Z,26.38
2019-05-18T13:25:32.575Z,26.35
2019-05-18T13:26:32.539Z,26.00
2019-05-18T13:27:39.434Z,25.79
2019-05-18T13:28:32.521Z,25.48
2019-05-18T13:29:32.502Z,25.26
2019-05-18T13:30:32.509Z,25.16
2019-05-18T13:31:32.510Z,25.04
2019-05-18T13:32:32.488Z,25.05
2019-05-18T13:33:32.483Z,25.11
2019-05-18T13:34:32.465Z,25.11
2019-05-18T13:35:32.472Z,25.19
2019-05-18T13:36:32.446Z,25.14
2019-05-18T13:37:32.466Z,25.09